This is the latest recevied weather packets stored in our database for station/object AA3CS-1. If no packets are shown the sender has not sent any weather packets the latest 10 day(s).
| Time | Temp. | Humidity | Pressure | Rain* | Wind** | Luminosity | Snow |
|---|---|---|---|---|---|---|---|
| 1777444216 | 9.44° C | 92% | 1012.9 hPa | 0 mm | - | 0 W/m² | - |
| 1777443616 | 9.44° C | 93% | 1013.1 hPa | 0 mm | - | 0 W/m² | - |
| 1777443016 | 9.44° C | 91% | 1013.2 hPa | 0 mm | - | 0 W/m² | - |
| 1777435816 | 10.56° C | 87% | 1013.4 hPa | 0 mm | - | 0 W/m² | - |
| 1777435516 | 10.56° C | 86% | 1013.4 hPa | 0 mm | - | 0 W/m² | - |
| 1777435216 | 10.56° C | 87% | 1013.4 hPa | 0 mm | - | 0 W/m² | - |
| 1777433416 | 11.67° C | 84% | 1013.9 hPa | 0 mm | - | 0 W/m² | - |
| 1777433116 | 11.67° C | 84% | 1013.8 hPa | 0 mm | - | 0 W/m² | - |
| 1777431016 | 12.22° C | 80% | 1013.7 hPa | 0 mm | - | 0 W/m² | - |
| 1777429236 | 13.33° C | 77% | 1013.9 hPa | 0 mm | - | 0 W/m² | - |
| 1777428916 | 13.33° C | 77% | 1014 hPa | 0 mm | - | 0 W/m² | - |
| 1777428036 | 13.89° C | 76% | 1014.1 hPa | 0 mm | - | 0 W/m² | - |
| 1777426216 | 14.44° C | 74% | 1013.9 hPa | 0 mm | - | 0 W/m² | - |
| 1777425616 | 15° C | 74% | 1013.7 hPa | 0 mm | - | 0 W/m² | - |
| 1777423836 | 15.56° C | 71% | 1013.6 hPa | 0 mm | - | 0 W/m² | - |
| 1777418717 | 18.33° C | 63% | 1013.4 hPa | 0 mm | - | 71 W/m² | - |
| 1777417518 | 18.89° C | 64% | 1013.5 hPa | 0 mm | - | 155 W/m² | - |
| 1777417217 | 18.89° C | 62% | 1013.5 hPa | 0 mm | - | 150 W/m² | - |
| 1777413317 | 20.56° C | 62% | 1012.8 hPa | 0 mm | - | 348 W/m² | - |
| 1777412417 | 20.56° C | 59% | 1012.8 hPa | 0 mm | - | 390 W/m² | - |
| 1777411817 | 21.11° C | 59% | 1012.8 hPa | 0 mm | - | 422 W/m² | - |
| 1777410017 | 20.56° C | 60% | 1012.7 hPa | 0 mm | - | 169 W/m² | - |
| 1777408217 | 21.67° C | 58% | 1012.7 hPa | 0 mm | - | 250 W/m² | - |
| 1777407917 | 21.11° C | 61% | 1012.7 hPa | 0 mm | - | 547 W/m² | - |
| 1777406717 | 21.11° C | 62% | 1012.7 hPa | 0 mm | - | 385 W/m² | - |
* Rain latest hour (hover to see other rain measurements)
** Current wind speed in m/s (hover to see current wind gust speed)